Sunday, February 17, 2019, 3:04 PM EST
Back to Local

KMWN, Mount Washington

Location: Bretton Woods, NH, United States Lat: 44.267
Local Time: 3:04 PM EST (20:04 GMT) Lon: -71.3
Time Zone: US/Eastern Elev: 6263 ft

Show me the last for .
Show Coded

Time T Td Feel RH Dir Speed Gust Alt SLP Vis Weather Sky Remarks
2019-02-17 14:47 10 -11 -10 36 270° 24 - - - 90 SCT100 BKN140 BKN180 None
2019-02-17 13:47 10 -13 -10 32 290° 23 - - - 110 SCT160 SCT180 None
2019-02-17 12:51 12 -6 -7 43 290° 23 - - - 120 FEW160 FEW200 Snow depth: 16"
6-hr Min Temp (1pm): 4.8°F
6-hr Max Temp (1pm): 14.0°F
2019-02-17 11:48 12 -17 -5 25 300° 18 - - - 120 FEW180 FEW200 None
2019-02-17 10:47 9 -15 -11 32 300° 22 - - - 120 FEW160 FEW200 None
2019-02-17 09:52 9 -13 -15 35 300° 33 - - - 120 FEW160 FEW200 None
2019-02-17 08:50 9 -18 -16 27 300° 36 - - - 120 FEW160 FEW180 None
2019-02-17 07:47 5 -20 -22 29 300° 39 - - - 120 FEW160 FEW180 None
2019-02-17 06:53 7 -22 -21 24 310° 47 - - - 120 FEW120 FEW160 24-hr Precip Total (7am): 0.05"
Snow depth: 16"
6-hr Min Temp (7am): -3.3°F
6-hr Max Temp (7am): 6.3°F
2019-02-17 05:49 3 -20 -28 31 310° 55 - - - 120 FEW080 FEW160 None
2019-02-17 04:51 5 -29 -26 17 300° 60 - - - 120 FEW060 None
2019-02-17 03:52 1 -20 -31 34 300° 59 - - - 120 FEW060 SCT080 None
2019-02-17 02:52 -2 -9 -35 70 300° 53 - - - 120 SCT060 BKN080 None
2019-02-17 01:53 0 -9 -33 64 300° 59 - - - 130 FEW120 FEW140 SCT160 BKN180 None
2019-02-17 00:53 -2 -11 -37 64 300° 59 63 - - 130 FEW140 FEW160 SCT180 6-hr Precip Total (1am): 0.00"
Snow depth: 16"
6-hr Min Temp (1am): -5.3°F
6-hr Max Temp (1am): 0.9°F
2019-02-16 23:53 -2 -9 -38 70 310° 62 68 - - 130 FEW180 None
2019-02-16 22:54 0 -20 -36 37 310° 66 71 - - 130 CLR None
2019-02-16 21:51 -4 -4 -42 100 310° 69 78 - - 0 FZFG BLSN SCT000 None
2019-02-16 20:51 -4 -4 -43 100 310° 69 82 - - 0 FZFG BLSN BKN000 None
2019-02-16 19:54 -4 -4 -41 100 20° 68 75 - - 0 FZFG BLSN BKN000 None
2019-02-16 18:55 -2 -2 -36 100 310° 56 - - - 0 -SHSN FZFG BLSN VV001 6-hr Precip Total (7pm): 0.05"
Snow depth: 16"
6-hr Min Temp (7pm): -2.9°F
6-hr Max Temp (7pm): 7.5°F
2019-02-16 17:55 0 0 -35 100 310° 58 66 - - 0 -SHSN FZFG BLSN VV001 None
2019-02-16 16:47 3 3 -29 100 290° 54 62 - - 0 FZFG BLSN VV001 None
2019-02-16 15:49 5 5 -25 100 290° 47 54 - - 0 FZFG BLSN VV002 None

Support USWX by starting your Amazon purchase here.